• Join FlightAware (Why Join?)
  • Login
  • US Flag GB Flag 
10:40 EDT


 

Airport Tracker/Info


-or-


 

Live Flight TrackerFlight Track Log ✈ CPT8773 ✈ 03-May-2013 ✈ KCPR - KCOD

Flight Track Log - Related Links

Times and Time Zones

All times are in EDT time to prevent confusion due to time zone crossing. See the CPT8773 flight status page for this flight to view local times or setup timezone preferences in your user account.

Time Position Orientation Groundspeed Altitude Reporting Facility
EDT Latitude Longitude Course Direction KTS MPH feet Rate Location/Type
09:25 42.9436 -106.5042 308° West 123 142 7,200  Level Salt Lake Center
09:26 42.9739 -106.5133 348° North 120 138 7,900 660 Climbing Salt Lake Center
09:27 43.0039 -106.5247 344° North 118 136 8,600 660 Climbing Salt Lake Center
09:28 43.0378 -106.5383 344° North 117 135 9,400 600 Climbing Denver Center
09:29 43.0872 -106.2733 308° West  Level FlightAware Approximate
09:29 43.0733 -106.5508 346° North 116 133 10,000  Level Denver Center
09:30 43.1111 -106.3153 308° West  Level FlightAware Approximate
09:30 43.1036 -106.5619 345° North 117 135 10,600  Level Denver Center
09:31 43.1369 -106.5775 341° North 114 131 11,300 600 Climbing Denver Center
09:32 43.1658 -106.5914 341° North 115 132 11,900 300 Climbing Denver Center
09:33 43.1958 -106.6081 338° Northwest 119 137 12,000  Climbing Denver Center
09:34 43.2356 -106.6294 339° North 135 155 12,000  Level Denver Center
09:35 43.2722 -106.6456 342° North 142 163 12,000  Level Denver Center
09:36 43.3067 -106.6739 329° Northwest 150 173 12,000  Level Denver Center
09:37 43.3300 -106.7311 299° West 153 176 12,000  Level Denver Center
09:38 43.3550 -106.7758 308° West 153 176 12,000  Level Denver Center
09:39 43.3769 -106.8219 303° West 152 175 12,000  Level Denver Center
09:40 43.4067 -106.8731 309° West 153 176 12,000  Level Denver Center
09:41 43.4308 -106.9186 306° West 156 180 12,000  Level Denver Center
09:42 43.4578 -106.9719 305° West 153 176 12,000  Level Denver Center
09:43 43.4808 -107.0192 304° West 154 177 12,000  Level Denver Center
09:44 43.5056 -107.0642 307° West 154 177 12,000  Level Denver Center
09:45 43.5339 -107.1183 306° West 155 178 12,000  Level Denver Center
09:46 43.5519 -107.1589 302° West 153 176 12,000  Level Salt Lake Center
09:47 43.5808 -107.2128 307° West 156 180 12,000  Level Salt Lake Center
09:48 43.6053 -107.2575 307° West 154 177 12,000  Level Salt Lake Center
09:49 43.6292 -107.3033 306° West 153 176 12,000  Level Salt Lake Center
09:50 43.6564 -107.3561 305° West 152 175 12,000  Level Salt Lake Center
09:51 43.6797 -107.4019 305° West 152 175 12,000  Level Salt Lake Center
09:52 43.7064 -107.4553 305° West 152 175 12,000  Level Salt Lake Center
09:53 43.7306 -107.4997 307° West 152 175 12,000  Level Salt Lake Center
09:54 43.7544 -107.5464 305° West 153 176 12,000  Level Salt Lake Center
09:55 43.7817 -107.6003 305° West 153 176 12,000  Level Salt Lake Center
09:56 43.8050 -107.6444 306° West 152 175 12,000  Level Salt Lake Center
09:57 43.8278 -107.6892 305° West 150 173 12,000  Level Salt Lake Center
09:58 43.8539 -107.7411 305° West 149 171 12,000  Level Salt Lake Center
09:59 43.8775 -107.7850 307° West 148 170 12,000  Level Salt Lake Center
10:00 43.9036 -107.8394 304° West 149 171 12,000  Level Salt Lake Center
10:01 43.9275 -107.8833 307° West 150 173 12,000  Level Salt Lake Center
10:02 43.9503 -107.9289 305° West 150 173 12,000  Level Salt Lake Center
10:03 43.9789 -107.9803 308° West 150 173 12,000  Level Salt Lake Center
10:04 44.0069 -108.0214 314° West 152 175 12,000  Level Salt Lake Center
10:05 44.0383 -108.0678 313° West 150 173 12,000  Level Salt Lake Center
10:06 44.0647 -108.1083 312° West 149 171 12,000  Level Salt Lake Center
10:07 44.0911 -108.1494 312° West 149 171 12,000  Level Salt Lake Center
10:08 44.1231 -108.1972 313° West 149 171 12,000  Level Salt Lake Center
10:09 44.1503 -108.2381 313° West 150 173 12,000  Level Salt Lake Center
10:10 44.1764 -108.2800 311° West 150 173 12,000  Level Salt Lake Center
10:11 44.2083 -108.3306 311° West 152 175 12,000  Level Salt Lake Center
10:12 44.2364 -108.3722 313° West 154 177 12,000  Level Salt Lake Center
10:14 44.2686 -108.4208 313° West 153 176 12,000  Level Salt Lake Center
10:15 44.2953 -108.4622 312° West 152 175 12,000  Level Salt Lake Center
10:16 44.3225 -108.5044 312° West 151 174 12,000  Level Salt Lake Center
10:17 44.3547 -108.5544 312° West 153 176 12,000  Level Salt Lake Center